METAR Data
IDs: Format: Raw Decoded Include TAF

Data at: 0805 UTC 03 Aug 2021

LJMB 030800Z 09001KT 9999 FEW013 20/15 Q1017